createdAt,value
2023-05-18T00:00:37.853Z,1.70
2023-05-18T00:03:07.085Z,1.50
2023-05-18T00:05:35.508Z,2.10
2023-05-18T00:08:04.174Z,2.08
2023-05-18T00:10:32.527Z,1.83
2023-05-18T00:13:00.991Z,2.97
2023-05-18T00:15:29.603Z,2.17
2023-05-18T00:17:58.701Z,1.90
2023-05-18T00:20:27.050Z,1.85
2023-05-18T00:22:55.377Z,2.33
2023-05-18T00:25:24.050Z,4.30
2023-05-18T00:27:52.467Z,2.33
2023-05-18T00:30:21.490Z,2.67
2023-05-18T00:32:49.794Z,2.30
2023-05-18T00:35:18.188Z,1.95
2023-05-18T00:37:46.559Z,1.73
2023-05-18T00:40:15.018Z,2.67
2023-05-18T00:42:43.585Z,1.88
2023-05-18T00:45:12.063Z,1.75
2023-05-18T00:47:40.567Z,2.40
2023-05-18T00:50:09.628Z,1.92
2023-05-18T00:52:38.454Z,2.20
2023-05-18T00:55:07.752Z,2.00
2023-05-18T00:57:36.735Z,2.00
2023-05-18T01:00:10.622Z,2.33
2023-05-18T01:02:42.820Z,1.63
2023-05-18T01:05:12.211Z,1.70
2023-05-18T01:07:44.423Z,3.00
2023-05-18T01:10:16.707Z,3.10
2023-05-18T01:12:59.575Z,1.98
2023-05-18T01:15:38.319Z,2.00
2023-05-18T01:18:34.294Z,2.55
2023-05-18T01:21:14.077Z,2.35
2023-05-18T01:24:10.155Z,2.07
2023-05-18T01:26:41.120Z,1.95
2023-05-18T01:29:11.832Z,2.70
2023-05-18T01:31:40.382Z,2.20
2023-05-18T01:34:08.840Z,2.85
2023-05-18T01:36:37.070Z,2.35
2023-05-18T01:39:05.594Z,1.95
2023-05-18T01:41:39.518Z,2.17
2023-05-18T01:44:23.703Z,1.83
2023-05-18T01:47:03.565Z,2.28
2023-05-18T01:49:47.145Z,2.22
2023-05-18T01:52:28.871Z,2.67
2023-05-18T01:55:03.301Z,1.92
2023-05-18T01:57:33.705Z,2.25
2023-05-18T02:00:04.876Z,2.50
2023-05-18T02:02:45.265Z,2.70
2023-05-18T02:05:16.312Z,2.47
2023-05-18T02:07:47.239Z,2.33
2023-05-18T02:10:16.052Z,2.78
2023-05-18T02:12:44.351Z,1.92
2023-05-18T02:15:12.718Z,2.50
2023-05-18T02:17:41.463Z,1.83
2023-05-18T02:20:10.187Z,1.52
2023-05-18T02:22:38.564Z,1.85
2023-05-18T02:25:07.272Z,1.98
2023-05-18T02:27:36.715Z,2.28
2023-05-18T02:30:08.239Z,2.15
2023-05-18T02:32:38.512Z,2.35
2023-05-18T02:37:42.239Z,2.92
2023-05-18T02:40:13.646Z,1.73
2023-05-18T02:45:12.148Z,2.30
2023-05-18T02:47:44.043Z,1.60
2023-05-18T02:50:13.104Z,1.97
2023-05-18T02:52:45.509Z,3.50
2023-05-18T02:55:14.239Z,2.27
2023-05-18T02:57:57.083Z,2.15
2023-05-18T03:03:04.261Z,2.10
2023-05-18T03:05:32.723Z,2.38
2023-05-18T03:08:02.387Z,2.45
2023-05-18T03:10:32.237Z,3.10
2023-05-18T03:13:00.961Z,2.93
2023-05-18T03:15:31.858Z,2.75
2023-05-18T03:18:00.666Z,2.58
2023-05-18T03:20:31.613Z,2.53
2023-05-18T03:22:59.879Z,3.03
2023-05-18T03:25:28.360Z,2.87
2023-05-18T03:27:56.950Z,2.97
2023-05-18T03:30:25.343Z,2.83
2023-05-18T03:32:53.943Z,2.53
2023-05-18T03:35:22.286Z,2.72
2023-05-18T03:37:50.645Z,3.65
2023-05-18T03:40:19.498Z,2.90
2023-05-18T03:42:48.548Z,2.70
2023-05-18T03:45:17.684Z,2.50
2023-05-18T03:47:46.206Z,2.38
2023-05-18T03:50:14.595Z,2.55
2023-05-18T03:52:44.894Z,2.17
2023-05-18T03:55:13.615Z,2.60
2023-05-18T03:57:41.923Z,2.15
2023-05-18T04:00:13.227Z,1.93
2023-05-18T04:02:47.347Z,2.10
2023-05-18T04:05:21.651Z,2.40
2023-05-18T04:07:49.929Z,3.33
2023-05-18T04:10:19.629Z,2.10
2023-05-18T04:12:47.995Z,2.40
2023-05-18T04:15:18.036Z,2.50
2023-05-18T04:17:46.388Z,2.33
2023-05-18T04:20:16.801Z,2.77
2023-05-18T04:22:48.211Z,2.33
2023-05-18T04:25:17.023Z,2.20
2023-05-18T04:27:45.827Z,3.42
2023-05-18T04:30:14.768Z,2.93
2023-05-18T04:32:44.417Z,2.50
2023-05-18T04:35:12.890Z,2.78
2023-05-18T04:37:42.719Z,3.17
2023-05-18T04:40:16.975Z,3.20
2023-05-18T04:42:47.704Z,2.47
2023-05-18T04:45:20.757Z,3.13
2023-05-18T04:47:54.642Z,3.33
2023-05-18T04:50:24.311Z,3.63
2023-05-18T04:52:53.946Z,2.72
2023-05-18T04:55:27.440Z,3.20
2023-05-18T04:58:05.034Z,2.60
2023-05-18T05:00:33.512Z,2.70
2023-05-18T05:03:01.897Z,3.45
2023-05-18T05:05:30.618Z,3.15
2023-05-18T05:07:59.394Z,2.40
2023-05-18T05:10:30.926Z,4.80
2023-05-18T05:15:27.471Z,2.85
2023-05-18T05:17:58.147Z,2.97
2023-05-18T05:20:26.555Z,3.28
2023-05-18T05:22:55.319Z,2.80
2023-05-18T05:27:56.783Z,2.88
2023-05-18T05:30:51.163Z,3.17
2023-05-18T05:33:19.918Z,3.03
2023-05-18T05:36:13.119Z,2.80
2023-05-18T05:38:42.193Z,2.45
2023-05-18T05:41:10.779Z,2.78
2023-05-18T05:43:40.424Z,2.15
2023-05-18T05:46:08.924Z,2.78
2023-05-18T05:48:37.334Z,2.92
2023-05-18T05:51:05.857Z,2.72
2023-05-18T05:53:35.039Z,2.25
2023-05-18T05:56:05.016Z,2.80
2023-05-18T05:58:37.099Z,2.60
2023-05-18T06:01:05.583Z,2.55
2023-05-18T06:03:35.908Z,2.35
2023-05-18T06:06:07.182Z,2.78
2023-05-18T06:08:35.526Z,2.28
2023-05-18T06:11:08.745Z,2.20
2023-05-18T06:13:38.671Z,2.20
2023-05-18T06:16:07.062Z,1.73
2023-05-18T06:18:36.499Z,2.30
2023-05-18T06:21:06.725Z,2.08
2023-05-18T06:23:35.052Z,1.50
2023-05-18T06:26:03.476Z,2.25
2023-05-18T06:28:57.213Z,2.28
2023-05-18T06:31:32.925Z,2.35
2023-05-18T06:34:10.724Z,1.83
2023-05-18T06:36:39.285Z,2.40
2023-05-18T06:39:07.619Z,1.90
2023-05-18T06:41:36.172Z,1.98
2023-05-18T06:44:04.794Z,2.03
2023-05-18T06:46:38.225Z,2.20
2023-05-18T06:49:22.343Z,2.22
2023-05-18T06:51:58.862Z,2.15
2023-05-18T06:54:31.475Z,2.17
2023-05-18T06:57:06.141Z,1.95
2023-05-18T06:59:35.931Z,2.45
2023-05-18T07:02:14.112Z,2.60
2023-05-18T07:05:09.184Z,2.47
2023-05-18T07:07:38.753Z,2.20
2023-05-18T07:10:32.007Z,2.22
2023-05-18T07:13:14.637Z,2.80
2023-05-18T07:15:48.347Z,1.98
2023-05-18T07:18:20.649Z,2.33
2023-05-18T07:20:49.106Z,2.03
2023-05-18T07:23:17.412Z,1.95
2023-05-18T07:25:45.661Z,2.05
2023-05-18T07:28:13.968Z,2.38
2023-05-18T07:30:44.092Z,1.75
2023-05-18T07:33:13.447Z,2.25
2023-05-18T07:35:41.836Z,2.20
2023-05-18T07:38:10.198Z,2.03
2023-05-18T07:40:38.671Z,2.13
2023-05-18T07:43:06.913Z,1.95
2023-05-18T07:45:35.346Z,1.98
2023-05-18T07:48:04.052Z,1.90
2023-05-18T07:50:32.337Z,2.50
2023-05-18T07:53:00.637Z,2.08
2023-05-18T07:55:29.171Z,2.58
2023-05-18T07:57:57.645Z,2.28
2023-05-18T08:00:50.795Z,2.42
2023-05-18T08:03:19.647Z,1.58
2023-05-18T08:05:48.018Z,1.90
2023-05-18T08:08:16.358Z,1.98
2023-05-18T08:10:44.732Z,1.77
2023-05-18T08:13:13.060Z,1.67
2023-05-18T08:15:41.373Z,1.88
2023-05-18T08:18:09.795Z,1.70
2023-05-18T08:20:38.816Z,1.77
2023-05-18T08:23:07.151Z,1.80
2023-05-18T08:25:35.654Z,1.95
2023-05-18T08:28:04.295Z,1.60
2023-05-18T08:30:32.571Z,1.50
2023-05-18T08:33:01.589Z,2.25
2023-05-18T08:35:30.284Z,1.80
2023-05-18T08:37:58.906Z,1.95
2023-05-18T08:40:37.445Z,3.05
2023-05-18T08:43:23.187Z,2.10
2023-05-18T08:46:21.581Z,1.80
2023-05-18T08:48:53.654Z,1.77
2023-05-18T08:51:22.817Z,1.90
2023-05-18T08:53:54.433Z,1.98
2023-05-18T08:56:25.044Z,1.83
2023-05-18T08:58:57.432Z,1.92
2023-05-18T09:01:29.373Z,2.67
2023-05-18T09:03:58.520Z,2.00
2023-05-18T09:06:28.264Z,2.00
2023-05-18T09:08:58.997Z,2.17
2023-05-18T09:11:28.581Z,2.08
2023-05-18T09:13:56.955Z,2.10
2023-05-18T09:16:25.305Z,1.92
2023-05-18T09:18:54.006Z,2.15
2023-05-18T09:21:22.455Z,2.00
2023-05-18T09:23:51.435Z,2.60
2023-05-18T09:26:22.810Z,1.95
2023-05-18T09:28:54.764Z,2.25
2023-05-18T09:31:27.549Z,2.30
2023-05-18T09:33:56.074Z,2.22
2023-05-18T09:36:26.318Z,1.83
2023-05-18T09:39:01.810Z,2.50
2023-05-18T09:41:30.657Z,2.75
2023-05-18T09:43:59.058Z,2.25
2023-05-18T09:46:32.525Z,2.80
2023-05-18T09:49:25.914Z,2.13
2023-05-18T09:51:54.336Z,2.60
2023-05-18T09:54:24.418Z,2.25
2023-05-18T09:57:08.924Z,2.20
2023-05-18T09:59:38.898Z,2.03
2023-05-18T10:02:08.791Z,2.55
2023-05-18T10:04:42.624Z,1.95
2023-05-18T10:07:16.506Z,2.10
2023-05-18T10:09:46.091Z,2.67
2023-05-18T10:12:16.979Z,1.70
2023-05-18T10:14:46.500Z,2.10
2023-05-18T10:17:17.113Z,1.98
2023-05-18T10:19:49.502Z,2.38
2023-05-18T10:22:19.466Z,1.70
2023-05-18T10:24:52.742Z,2.17
2023-05-18T10:27:28.342Z,2.15
2023-05-18T10:30:03.566Z,2.08
2023-05-18T10:32:31.944Z,2.35
2023-05-18T10:35:01.130Z,1.90
2023-05-18T10:37:31.780Z,1.80
2023-05-18T10:42:31.139Z,1.70
2023-05-18T10:45:01.409Z,1.65
2023-05-18T10:47:30.006Z,2.13
2023-05-18T10:50:00.703Z,1.85
2023-05-18T10:52:31.884Z,2.00
2023-05-18T10:55:01.137Z,1.85
2023-05-18T10:57:51.352Z,1.95
2023-05-18T11:00:20.464Z,1.92
2023-05-18T11:02:50.797Z,1.85
2023-05-18T11:05:26.647Z,2.22
2023-05-18T11:08:05.707Z,1.95
2023-05-18T11:10:47.179Z,2.25
2023-05-18T11:13:15.852Z,1.50
2023-05-18T11:15:56.606Z,1.83
2023-05-18T11:18:38.632Z,1.67
2023-05-18T11:21:25.388Z,1.70
2023-05-18T11:24:21.753Z,1.75
2023-05-18T11:26:55.137Z,1.83
2023-05-18T11:29:34.899Z,1.70
2023-05-18T11:32:04.901Z,1.33
2023-05-18T11:37:38.297Z,1.35
2023-05-18T11:40:13.424Z,1.50
2023-05-18T11:42:41.979Z,1.60
2023-05-18T11:45:13.779Z,2.08
2023-05-18T11:47:42.380Z,1.42
2023-05-18T11:50:14.809Z,1.92
2023-05-18T11:52:57.160Z,1.77
2023-05-18T11:55:41.268Z,1.88
2023-05-18T11:58:10.638Z,1.45
2023-05-18T12:00:39.606Z,1.40
2023-05-18T12:03:09.088Z,1.63
2023-05-18T12:05:37.542Z,1.52
2023-05-18T12:08:06.417Z,1.88
2023-05-18T12:10:37.230Z,1.65
2023-05-18T12:13:06.443Z,1.30
2023-05-18T12:15:34.776Z,1.35
2023-05-18T12:18:03.128Z,1.40
2023-05-18T12:20:31.846Z,1.65
2023-05-18T12:23:01.124Z,2.13
2023-05-18T12:25:29.727Z,3.42
2023-05-18T12:27:59.011Z,1.90
2023-05-18T12:30:35.908Z,2.03
2023-05-18T12:33:04.915Z,1.45
2023-05-18T12:35:33.948Z,1.17
2023-05-18T12:38:02.973Z,1.80
2023-05-18T12:40:44.915Z,1.30
2023-05-18T12:43:13.685Z,2.05
2023-05-18T12:45:45.017Z,1.63
2023-05-18T12:48:14.851Z,1.48
2023-05-18T12:50:50.968Z,1.80
2023-05-18T12:53:21.308Z,1.40
2023-05-18T12:56:01.578Z,1.48
2023-05-18T12:58:59.379Z,1.50
2023-05-18T13:01:28.012Z,1.50
2023-05-18T13:03:58.680Z,1.98
2023-05-18T13:06:27.264Z,1.80
2023-05-18T13:08:55.932Z,1.70
2023-05-18T13:11:27.711Z,1.20
2023-05-18T13:14:05.450Z,1.38
2023-05-18T13:16:38.725Z,1.50
2023-05-18T13:19:09.927Z,1.40
2023-05-18T13:21:39.132Z,1.20
2023-05-18T13:24:07.613Z,1.15
2023-05-18T13:26:35.936Z,1.20
2023-05-18T13:29:04.994Z,1.02
2023-05-18T13:31:33.345Z,1.65
2023-05-18T13:34:01.738Z,1.35
2023-05-18T13:36:30.130Z,1.15
2023-05-18T13:38:58.489Z,1.40
2023-05-18T13:41:27.116Z,1.77
2023-05-18T13:43:55.416Z,1.50
2023-05-18T13:46:23.776Z,1.77
2023-05-18T13:48:52.076Z,1.40
2023-05-18T13:51:20.456Z,2.00
2023-05-18T13:53:48.790Z,1.98
2023-05-18T13:56:17.139Z,1.50
2023-05-18T13:58:46.013Z,1.80
2023-05-18T14:01:16.598Z,1.20
2023-05-18T14:03:45.037Z,1.25
2023-05-18T14:06:40.721Z,1.40
2023-05-18T14:09:09.356Z,1.42
2023-05-18T14:11:38.386Z,1.10
2023-05-18T14:14:06.681Z,1.60
2023-05-18T14:16:59.823Z,1.50
2023-05-18T14:19:28.214Z,2.67
2023-05-18T14:21:56.574Z,2.00
2023-05-18T14:24:24.861Z,1.20
2023-05-18T14:26:53.588Z,1.75
2023-05-18T14:29:22.022Z,1.33
2023-05-18T14:31:52.481Z,1.17
2023-05-18T14:34:20.787Z,1.10
2023-05-18T14:36:49.077Z,1.30
2023-05-18T14:39:17.364Z,1.63
2023-05-18T14:41:45.867Z,1.20
2023-05-18T14:44:14.149Z,1.05
2023-05-18T14:46:43.149Z,1.20
2023-05-18T14:49:11.523Z,1.50
2023-05-18T14:51:40.842Z,1.25
2023-05-18T14:54:09.200Z,1.15
2023-05-18T14:56:37.497Z,1.20
2023-05-18T14:59:05.988Z,1.58
2023-05-18T15:01:34.271Z,1.20
2023-05-18T15:04:03.274Z,1.30
2023-05-18T15:06:31.717Z,1.40
2023-05-18T15:09:00.016Z,1.58
2023-05-18T15:11:28.363Z,1.67
2023-05-18T15:13:56.626Z,1.63
2023-05-18T15:16:25.705Z,1.33
2023-05-18T15:18:54.060Z,1.52
2023-05-18T15:21:22.429Z,1.60
2023-05-18T15:23:50.935Z,1.20
2023-05-18T15:26:19.209Z,1.10
2023-05-18T15:28:47.484Z,1.60
2023-05-18T15:31:16.294Z,1.40
2023-05-18T15:33:44.876Z,1.20
2023-05-18T15:36:13.217Z,1.23
2023-05-18T15:38:41.583Z,1.48
2023-05-18T15:41:09.852Z,1.70
2023-05-18T15:43:39.090Z,1.92
2023-05-18T15:46:07.488Z,1.33
2023-05-18T15:48:36.898Z,1.67
2023-05-18T15:51:05.208Z,1.45
2023-05-18T15:53:33.501Z,1.45
2023-05-18T15:56:02.945Z,1.55
2023-05-18T15:58:31.272Z,1.33
2023-05-18T16:00:59.644Z,1.52
2023-05-18T16:03:28.046Z,1.27
2023-05-18T16:05:56.422Z,1.38
2023-05-18T16:08:24.671Z,1.33
2023-05-18T16:10:53.086Z,1.40
2023-05-18T16:13:25.728Z,1.30
2023-05-18T16:15:54.131Z,1.10
2023-05-18T16:18:22.429Z,1.38
2023-05-18T16:20:50.846Z,1.35
2023-05-18T16:23:19.094Z,1.30
2023-05-18T16:25:47.440Z,1.75
2023-05-18T16:28:15.700Z,1.17
2023-05-18T16:30:44.052Z,1.38
2023-05-18T16:33:12.396Z,1.63
2023-05-18T16:35:40.990Z,1.25
2023-05-18T16:38:09.387Z,1.50
2023-05-18T16:40:37.683Z,1.33
2023-05-18T16:43:06.403Z,1.75
2023-05-18T16:45:34.926Z,1.30
2023-05-18T16:48:03.763Z,1.70
2023-05-18T16:50:32.156Z,1.50
2023-05-18T16:53:00.644Z,1.35
2023-05-18T16:55:28.966Z,2.42
2023-05-18T16:57:57.256Z,3.05
2023-05-18T17:00:25.717Z,2.40
2023-05-18T17:02:54.049Z,2.63
2023-05-18T17:05:22.958Z,1.77
2023-05-18T17:07:53.120Z,2.50
2023-05-18T17:10:21.514Z,3.17
2023-05-18T17:12:49.919Z,3.75
2023-05-18T17:15:18.214Z,2.40
2023-05-18T17:17:46.506Z,3.58
2023-05-18T17:20:15.111Z,2.08
2023-05-18T17:22:43.397Z,2.28
2023-05-18T17:25:11.814Z,1.52
2023-05-18T17:27:40.150Z,1.35
2023-05-18T17:30:11.184Z,1.58
2023-05-18T17:32:39.905Z,1.90
2023-05-18T17:35:11.766Z,1.38
2023-05-18T17:37:41.817Z,2.28
2023-05-18T17:40:10.898Z,1.58
2023-05-18T17:42:39.526Z,1.48
2023-05-18T17:45:08.529Z,1.48
2023-05-18T17:47:38.078Z,1.73
2023-05-18T17:50:07.375Z,2.17
2023-05-18T17:52:35.683Z,1.10
2023-05-18T17:55:05.644Z,1.75
2023-05-18T17:57:34.055Z,1.70
2023-05-18T18:00:02.400Z,1.40
2023-05-18T18:02:41.249Z,1.80
2023-05-18T18:05:09.985Z,1.95
2023-05-18T18:07:39.127Z,1.58
2023-05-18T18:10:08.676Z,1.50
2023-05-18T18:12:37.029Z,1.38
2023-05-18T18:15:06.039Z,1.58
2023-05-18T18:17:34.600Z,1.83
2023-05-18T18:20:03.256Z,1.67
2023-05-18T18:22:33.082Z,1.65
2023-05-18T18:25:02.739Z,1.50
2023-05-18T18:27:31.024Z,1.88
2023-05-18T18:29:59.365Z,1.30
2023-05-18T18:32:27.633Z,1.58
2023-05-18T18:34:56.413Z,1.67
2023-05-18T18:37:24.818Z,2.00
2023-05-18T18:39:54.189Z,1.55
2023-05-18T18:42:22.591Z,1.90
2023-05-18T18:44:52.939Z,2.17
2023-05-18T18:47:21.371Z,1.98
2023-05-18T18:49:49.710Z,2.20
2023-05-18T18:52:18.111Z,2.00
2023-05-18T18:54:46.408Z,2.08
2023-05-18T18:57:14.928Z,1.77
2023-05-18T18:59:43.168Z,2.25
2023-05-18T19:02:11.648Z,2.00
2023-05-18T19:04:40.004Z,1.95
2023-05-18T19:07:08.446Z,2.08
2023-05-18T19:09:36.687Z,1.92
2023-05-18T19:12:05.619Z,1.95
2023-05-18T19:14:33.995Z,1.98
2023-05-18T19:17:02.347Z,1.92
2023-05-18T19:19:32.546Z,2.22
2023-05-18T19:22:00.923Z,2.35
2023-05-18T19:24:29.337Z,1.98
2023-05-18T19:26:57.708Z,1.80
2023-05-18T19:29:26.046Z,2.13
2023-05-18T19:31:55.832Z,2.08
2023-05-18T19:34:24.438Z,2.10
2023-05-18T19:36:53.362Z,2.55
2023-05-18T19:39:21.726Z,1.95
2023-05-18T19:41:50.005Z,2.30
2023-05-18T19:44:18.274Z,2.78
2023-05-18T19:46:46.936Z,1.90
2023-05-18T19:49:15.401Z,2.65
2023-05-18T19:51:44.282Z,2.50
2023-05-18T19:54:12.627Z,2.55
2023-05-18T19:56:41.197Z,2.63
2023-05-18T19:59:09.465Z,3.17
2023-05-18T20:01:37.918Z,3.03
2023-05-18T20:04:06.249Z,2.40
2023-05-18T20:06:34.983Z,2.55
2023-05-18T20:09:03.727Z,3.13
2023-05-18T20:11:31.958Z,2.25
2023-05-18T20:14:01.254Z,2.63
2023-05-18T20:16:34.233Z,2.58
2023-05-18T20:19:03.143Z,2.83
2023-05-18T20:21:32.044Z,2.10
2023-05-18T20:24:00.642Z,2.58
2023-05-18T20:26:31.253Z,3.03
2023-05-18T20:29:00.384Z,2.75
2023-05-18T20:31:28.943Z,2.58
2023-05-18T20:33:57.860Z,2.40
2023-05-18T20:36:26.712Z,2.47
2023-05-18T20:38:55.038Z,2.40
2023-05-18T20:41:24.300Z,2.58
2023-05-18T20:43:53.113Z,1.83
2023-05-18T20:46:47.928Z,2.00
2023-05-18T20:49:21.670Z,3.10
2023-05-18T20:52:15.462Z,2.65
2023-05-18T20:54:46.041Z,2.78
2023-05-18T20:57:14.499Z,2.47
2023-05-18T20:59:42.910Z,2.63
2023-05-18T21:02:11.226Z,2.85
2023-05-18T21:04:39.546Z,2.25
2023-05-18T21:07:09.807Z,2.35
2023-05-18T21:09:38.119Z,2.10
2023-05-18T21:12:07.856Z,2.55
2023-05-18T21:14:36.211Z,2.28
2023-05-18T21:17:05.414Z,2.40
2023-05-18T21:19:36.892Z,2.17
2023-05-18T21:22:20.911Z,2.28
2023-05-18T21:24:52.939Z,2.28
2023-05-18T21:27:39.801Z,2.83
2023-05-18T21:30:12.727Z,2.60
2023-05-18T21:32:42.416Z,2.30
2023-05-18T21:35:11.279Z,2.92
2023-05-18T21:37:39.545Z,2.72
2023-05-18T21:40:12.835Z,2.35
2023-05-18T21:42:54.137Z,2.25
2023-05-18T21:47:55.632Z,2.92
2023-05-18T21:50:23.976Z,3.75
2023-05-18T21:52:58.222Z,3.30
2023-05-18T21:55:26.606Z,3.20
2023-05-18T21:57:54.920Z,4.28
2023-05-18T22:00:48.120Z,3.67
2023-05-18T22:03:23.580Z,3.88
2023-05-18T22:06:20.371Z,2.65
2023-05-18T22:09:01.858Z,2.83
2023-05-18T22:11:55.573Z,2.40
2023-05-18T22:14:42.309Z,3.55
2023-05-18T22:17:10.736Z,2.80
2023-05-18T22:19:39.071Z,3.65
2023-05-18T22:22:11.571Z,3.60
2023-05-18T22:24:44.942Z,2.97
2023-05-18T22:27:13.221Z,3.42
2023-05-18T22:29:41.633Z,3.72
2023-05-18T22:32:11.082Z,4.07
2023-05-18T22:34:39.498Z,4.75
2023-05-18T22:37:07.760Z,3.38
2023-05-18T22:39:36.133Z,3.60
2023-05-18T22:42:06.817Z,3.35
2023-05-18T22:44:35.254Z,3.63
2023-05-18T22:47:03.877Z,3.25
2023-05-18T22:49:32.594Z,3.05
2023-05-18T22:52:26.636Z,2.75
2023-05-18T22:54:55.023Z,3.30
2023-05-18T22:57:23.297Z,4.05
2023-05-18T22:59:51.624Z,3.83
2023-05-18T23:02:19.938Z,3.25
2023-05-18T23:04:48.216Z,3.45
2023-05-18T23:07:16.733Z,3.45
2023-05-18T23:09:45.334Z,3.00
2023-05-18T23:12:13.603Z,3.65
2023-05-18T23:14:41.973Z,3.30
2023-05-18T23:17:11.432Z,3.20
2023-05-18T23:19:40.859Z,3.42
2023-05-18T23:22:09.176Z,3.05
2023-05-18T23:24:37.488Z,4.18
2023-05-18T23:27:05.997Z,3.60
2023-05-18T23:29:34.254Z,3.58
2023-05-18T23:32:03.512Z,3.90
2023-05-18T23:34:32.416Z,4.15
2023-05-18T23:37:04.808Z,3.60
2023-05-18T23:39:36.153Z,3.92
2023-05-18T23:44:32.999Z,3.35
2023-05-18T23:47:01.899Z,3.25
2023-05-18T23:49:30.810Z,3.28
2023-05-18T23:52:02.349Z,4.25
2023-05-18T23:54:31.254Z,5.93
2023-05-18T23:56:59.948Z,4.07
2023-05-18T23:59:28.537Z,4.53
